sensor_id;sensor_type;location;lat;lon;timestamp;pressure;altitude;pressure_sealevel;temperature;humidity
51239;BME280;38154;47.548;18.828;2023-07-28T00:00:03;98437.75;;;16.46;97.43
51239;BME280;38154;47.548;18.828;2023-07-28T00:02:30;98430.50;;;16.54;97.02
51239;BME280;38154;47.548;18.828;2023-07-28T00:04:55;98422.69;;;16.51;95.82
51239;BME280;38154;47.548;18.828;2023-07-28T00:07:21;98431.44;;;16.51;95.63
51239;BME280;38154;47.548;18.828;2023-07-28T00:09:47;98425.13;;;16.57;95.86
51239;BME280;38154;47.548;18.828;2023-07-28T00:12:13;98421.78;;;16.50;95.65
51239;BME280;38154;47.548;18.828;2023-07-28T00:14:39;98429.88;;;16.44;97.15
51239;BME280;38154;47.548;18.828;2023-07-28T00:17:05;98429.09;;;16.41;97.41
51239;BME280;38154;47.548;18.828;2023-07-28T00:19:31;98418.66;;;16.38;97.83
51239;BME280;38154;47.548;18.828;2023-07-28T00:21:57;98425.88;;;16.31;97.34
51239;BME280;38154;47.548;18.828;2023-07-28T00:24:23;98428.50;;;16.31;97.25
51239;BME280;38154;47.548;18.828;2023-07-28T00:26:49;98414.53;;;16.29;97.35
51239;BME280;38154;47.548;18.828;2023-07-28T00:29:15;98416.28;;;16.28;96.24
51239;BME280;38154;47.548;18.828;2023-07-28T00:31:40;98414.38;;;16.33;95.02
51239;BME280;38154;47.548;18.828;2023-07-28T00:34:06;98418.66;;;16.38;93.52
51239;BME280;38154;47.548;18.828;2023-07-28T00:36:32;98414.94;;;16.45;92.47
51239;BME280;38154;47.548;18.828;2023-07-28T00:38:58;98414.94;;;16.45;92.24
51239;BME280;38154;47.548;18.828;2023-07-28T00:41:24;98399.81;;;16.53;91.28
51239;BME280;38154;47.548;18.828;2023-07-28T00:43:50;98408.72;;;16.49;91.69
51239;BME280;38154;47.548;18.828;2023-07-28T00:46:16;98406.94;;;16.49;92.72
51239;BME280;38154;47.548;18.828;2023-07-28T00:48:43;98407.84;;;16.47;92.30
51239;BME280;38154;47.548;18.828;2023-07-28T00:51:09;98403.59;;;16.43;93.15
51239;BME280;38154;47.548;18.828;2023-07-28T00:53:35;98399.25;;;16.42;92.55
51239;BME280;38154;47.548;18.828;2023-07-28T00:56:01;98399.97;;;16.47;92.27
51239;BME280;38154;47.548;18.828;2023-07-28T00:58:27;98399.03;;;16.49;92.49
51239;BME280;38154;47.548;18.828;2023-07-28T01:00:53;98402.47;;;16.51;92.35
51239;BME280;38154;47.548;18.828;2023-07-28T01:03:20;98411.25;;;16.50;92.89
51239;BME280;38154;47.548;18.828;2023-07-28T01:08:30;98402.47;;;16.51;91.80
51239;BME280;38154;47.548;18.828;2023-07-28T01:10:58;98397.34;;;16.47;92.49
51239;BME280;38154;47.548;18.828;2023-07-28T01:13:24;98397.97;;;16.55;91.47
51239;BME280;38154;47.548;18.828;2023-07-28T01:15:50;98404.97;;;16.56;91.33
51239;BME280;38154;47.548;18.828;2023-07-28T01:18:16;98401.25;;;16.63;91.58
51239;BME280;38154;47.548;18.828;2023-07-28T01:20:42;98389.09;;;16.59;91.43
51239;BME280;38154;47.548;18.828;2023-07-28T01:23:19;98393.53;;;16.57;91.23
51239;BME280;38154;47.548;18.828;2023-07-28T01:26:05;98398.78;;;16.57;91.61
51239;BME280;38154;47.548;18.828;2023-07-28T01:28:34;98398.69;;;16.60;92.60
51239;BME280;38154;47.548;18.828;2023-07-28T01:31:02;98397.78;;;16.63;91.62
51239;BME280;38154;47.548;18.828;2023-07-28T01:33:29;98391.72;;;16.59;93.16
51239;BME280;38154;47.548;18.828;2023-07-28T01:35:55;98385.41;;;16.65;92.99
51239;BME280;38154;47.548;18.828;2023-07-28T01:38:21;98380.28;;;16.60;92.04
51239;BME280;38154;47.548;18.828;2023-07-28T01:40:47;98387.41;;;16.57;92.51
51239;BME280;38154;47.548;18.828;2023-07-28T01:43:13;98394.38;;;16.59;91.87
51239;BME280;38154;47.548;18.828;2023-07-28T01:45:39;98384.69;;;16.60;92.36
51239;BME280;38154;47.548;18.828;2023-07-28T01:48:05;98384.69;;;16.60;93.80
51239;BME280;38154;47.548;18.828;2023-07-28T01:50:31;98388.94;;;16.64;91.38
51239;BME280;38154;47.548;18.828;2023-07-28T01:52:57;98379.38;;;16.61;91.87
51239;BME280;38154;47.548;18.828;2023-07-28T01:55:23;98386.44;;;16.61;92.23
51239;BME280;38154;47.548;18.828;2023-07-28T01:57:57;98383.78;;;16.61;91.31
51239;BME280;38154;47.548;18.828;2023-07-28T02:00:24;98376.84;;;16.58;91.81
51239;BME280;38154;47.548;18.828;2023-07-28T02:02:50;98390.88;;;16.57;91.50
51239;BME280;38154;47.548;18.828;2023-07-28T02:05:16;98386.34;;;16.62;92.01
51239;BME280;38154;47.548;18.828;2023-07-28T02:07:42;98379.38;;;16.61;90.64
51239;BME280;38154;47.548;18.828;2023-07-28T02:10:09;98368.94;;;16.58;90.05
51239;BME280;38154;47.548;18.828;2023-07-28T02:12:36;98376.97;;;16.54;89.76
51239;BME280;38154;47.548;18.828;2023-07-28T02:15:03;98371.41;;;16.64;88.39
51239;BME280;38154;47.548;18.828;2023-07-28T02:17:29;98368.81;;;16.63;88.62
51239;BME280;38154;47.548;18.828;2023-07-28T02:19:55;98356.59;;;16.60;88.29
51239;BME280;38154;47.548;18.828;2023-07-28T02:22:21;98368.81;;;16.63;87.73
51239;BME280;38154;47.548;18.828;2023-07-28T02:24:47;98371.41;;;16.64;86.20
51239;BME280;38154;47.548;18.828;2023-07-28T02:27:13;98374.00;;;16.66;86.11
51239;BME280;38154;47.548;18.828;2023-07-28T02:29:39;98364.44;;;16.62;86.42
51239;BME280;38154;47.548;18.828;2023-07-28T02:32:05;98359.94;;;16.65;86.50
51239;BME280;38154;47.548;18.828;2023-07-28T02:34:31;98381.00;;;16.65;85.38
51239;BME280;38154;47.548;18.828;2023-07-28T02:36:57;98368.56;;;16.70;84.84
51239;BME280;38154;47.548;18.828;2023-07-28T02:39:23;98383.41;;;16.73;84.47
51239;BME280;38154;47.548;18.828;2023-07-28T02:41:50;98372.84;;;16.75;83.49
51239;BME280;38154;47.548;18.828;2023-07-28T02:44:16;98373.56;;;16.80;83.27
51239;BME280;38154;47.548;18.828;2023-07-28T02:46:42;98375.22;;;16.82;82.86
51239;BME280;38154;47.548;18.828;2023-07-28T02:49:08;98379.59;;;16.83;82.92
51239;BME280;38154;47.548;18.828;2023-07-28T02:51:34;98374.28;;;16.86;83.37
51239;BME280;38154;47.548;18.828;2023-07-28T02:54:00;98367.22;;;16.87;82.84
51239;BME280;38154;47.548;18.828;2023-07-28T02:56:26;98361.97;;;16.87;82.09
51239;BME280;38154;47.548;18.828;2023-07-28T02:58:52;98356.50;;;16.93;81.65
51239;BME280;38154;47.548;18.828;2023-07-28T03:01:18;98358.28;;;16.93;82.00
51239;BME280;38154;47.548;18.828;2023-07-28T03:03:44;98368.03;;;16.89;81.81
51239;BME280;38154;47.548;18.828;2023-07-28T03:06:10;98374.12;;;16.91;81.62
51239;BME280;38154;47.548;18.828;2023-07-28T03:08:36;98379.44;;;16.90;82.45
51239;BME280;38154;47.548;18.828;2023-07-28T03:11:02;98365.41;;;16.89;82.88
51239;BME280;38154;47.548;18.828;2023-07-28T03:13:28;98360.09;;;16.91;82.99
51239;BME280;38154;47.548;18.828;2023-07-28T03:15:54;98357.63;;;16.86;83.32
51239;BME280;38154;47.548;18.828;2023-07-28T03:18:20;98356.88;;;16.81;83.95
51239;BME280;38154;47.548;18.828;2023-07-28T03:20:46;98354.50;;;16.72;84.98
51239;BME280;38154;47.548;18.828;2023-07-28T03:23:13;98357.31;;;16.65;85.16
51239;BME280;38154;47.548;18.828;2023-07-28T03:25:38;98362.63;;;16.64;85.39
51239;BME280;38154;47.548;18.828;2023-07-28T03:28:04;98364.63;;;16.56;85.87
51239;BME280;38154;47.548;18.828;2023-07-28T03:30:30;98363.88;;;16.50;86.34
51239;BME280;38154;47.548;18.828;2023-07-28T03:32:56;98374.66;;;16.43;87.06
51239;BME280;38154;47.548;18.828;2023-07-28T03:35:22;98374.69;;;16.41;87.03
51239;BME280;38154;47.548;18.828;2023-07-28T03:37:48;98373.72;;;16.44;87.27
51239;BME280;38154;47.548;18.828;2023-07-28T03:40:14;98384.19;;;16.47;88.67
51239;BME280;38154;47.548;18.828;2023-07-28T03:42:40;98379.84;;;16.46;88.37
51239;BME280;38154;47.548;18.828;2023-07-28T03:45:06;98372.72;;;16.49;88.21
51239;BME280;38154;47.548;18.828;2023-07-28T03:47:33;98370.94;;;16.50;86.81
51239;BME280;38154;47.548;18.828;2023-07-28T03:49:59;98370.00;;;16.53;86.19
51239;BME280;38154;47.548;18.828;2023-07-28T03:52:24;98374.94;;;16.63;84.33
51239;BME280;38154;47.548;18.828;2023-07-28T03:54:50;98380.03;;;16.69;84.66
51239;BME280;38154;47.548;18.828;2023-07-28T03:57:16;98384.28;;;16.74;83.93
51239;BME280;38154;47.548;18.828;2023-07-28T03:59:42;98384.28;;;16.74;84.13
51239;BME280;38154;47.548;18.828;2023-07-28T04:02:08;98391.38;;;16.72;85.55
51239;BME280;38154;47.548;18.828;2023-07-28T04:04:35;98401.00;;;16.73;85.52
51239;BME280;38154;47.548;18.828;2023-07-28T04:07:01;98397.19;;;16.83;84.90
51239;BME280;38154;47.548;18.828;2023-07-28T04:09:27;98403.44;;;16.79;83.67
51239;BME280;38154;47.548;18.828;2023-07-28T04:11:53;98388.38;;;16.82;83.27
51239;BME280;38154;47.548;18.828;2023-07-28T04:14:19;98389.19;;;16.87;82.76
51239;BME280;38154;47.548;18.828;2023-07-28T04:16:44;98396.09;;;16.90;82.74
51239;BME280;38154;47.548;18.828;2023-07-28T04:19:10;98386.44;;;16.91;83.60
51239;BME280;38154;47.548;18.828;2023-07-28T04:21:36;98383.66;;;16.95;82.76
51239;BME280;38154;47.548;18.828;2023-07-28T04:24:08;98379.91;;;17.02;83.32
51239;BME280;38154;47.548;18.828;2023-07-28T04:26:34;98383.34;;;17.06;82.55
51239;BME280;38154;47.548;18.828;2023-07-28T04:29:00;98385.00;;;17.09;85.19
51239;BME280;38154;47.548;18.828;2023-07-28T04:31:26;98378.88;;;17.08;83.51
51239;BME280;38154;47.548;18.828;2023-07-28T04:33:52;98374.38;;;17.12;83.40
51239;BME280;38154;47.548;18.828;2023-07-28T04:36:18;98364.94;;;17.04;84.39
51239;BME280;38154;47.548;18.828;2023-07-28T04:38:44;98350.94;;;17.02;83.34
51239;BME280;38154;47.548;18.828;2023-07-28T04:41:10;98348.25;;;17.04;84.03
51239;BME280;38154;47.548;18.828;2023-07-28T04:43:36;98346.56;;;17.03;84.04
51239;BME280;38154;47.548;18.828;2023-07-28T04:46:02;98347.50;;;17.00;83.88
51239;BME280;38154;47.548;18.828;2023-07-28T04:48:28;98352.44;;;17.11;83.44
51239;BME280;38154;47.548;18.828;2023-07-28T04:50:54;98349.34;;;17.25;82.66
51239;BME280;38154;47.548;18.828;2023-07-28T04:53:20;98354.00;;;17.43;81.13
51239;BME280;38154;47.548;18.828;2023-07-28T04:55:46;98364.03;;;17.59;81.16
51239;BME280;38154;47.548;18.828;2023-07-28T04:58:11;98369.87;;;17.69;79.99
51239;BME280;38154;47.548;18.828;2023-07-28T05:00:37;98375.03;;;17.72;79.44
51239;BME280;38154;47.548;18.828;2023-07-28T05:03:03;98366.38;;;17.68;80.25
51239;BME280;38154;47.548;18.828;2023-07-28T05:05:29;98368.09;;;17.69;80.68
51239;BME280;38154;47.548;18.828;2023-07-28T05:07:55;98355.69;;;17.71;80.74
51239;BME280;38154;47.548;18.828;2023-07-28T05:10:21;98350.66;;;17.92;80.87
51239;BME280;38154;47.548;18.828;2023-07-28T05:12:47;98364.19;;;18.06;77.76
51239;BME280;38154;47.548;18.828;2023-07-28T05:15:14;98360.72;;;18.29;77.63
51239;BME280;38154;47.548;18.828;2023-07-28T05:17:41;98362.16;;;18.38;75.88
51239;BME280;38154;47.548;18.828;2023-07-28T05:20:07;98352.47;;;18.39;75.82
51239;BME280;38154;47.548;18.828;2023-07-28T05:22:33;98357.22;;;18.52;75.80
51239;BME280;38154;47.548;18.828;2023-07-28T05:24:58;98367.50;;;18.36;75.37
51239;BME280;38154;47.548;18.828;2023-07-28T05:27:24;98357.81;;;18.37;77.48
51239;BME280;38154;47.548;18.828;2023-07-28T05:29:50;98358.81;;;18.33;78.43
51239;BME280;38154;47.548;18.828;2023-07-28T05:32:16;98364.16;;;18.31;78.07
51239;BME280;38154;47.548;18.828;2023-07-28T05:34:42;98374.22;;;18.45;78.01
51239;BME280;38154;47.548;18.828;2023-07-28T05:37:09;98371.13;;;18.34;78.52
51239;BME280;38154;47.548;18.828;2023-07-28T05:39:35;98384.97;;;18.41;79.75
51239;BME280;38154;47.548;18.828;2023-07-28T05:42:01;98374.41;;;18.41;79.39
51239;BME280;38154;47.548;18.828;2023-07-28T05:44:27;98384.53;;;18.51;78.41
51239;BME280;38154;47.548;18.828;2023-07-28T05:46:53;98384.72;;;18.70;78.03
51239;BME280;38154;47.548;18.828;2023-07-28T05:49:19;98387.06;;;18.78;75.87
51239;BME280;38154;47.548;18.828;2023-07-28T05:51:45;98389.25;;;19.14;73.88
51239;BME280;38154;47.548;18.828;2023-07-28T05:54:14;98397.66;;;19.89;71.59
51239;BME280;38154;47.548;18.828;2023-07-28T05:56:41;98402.88;;;20.31;69.43
51239;BME280;38154;47.548;18.828;2023-07-28T05:59:07;98407.91;;;20.37;66.56
51239;BME280;38154;47.548;18.828;2023-07-28T06:01:33;98414.28;;;20.13;67.75
51239;BME280;38154;47.548;18.828;2023-07-28T06:03:59;98404.75;;;19.88;69.73
51239;BME280;38154;47.548;18.828;2023-07-28T06:06:25;98411.72;;;20.11;70.11
51239;BME280;38154;47.548;18.828;2023-07-28T06:08:52;98423.16;;;20.72;67.42
51239;BME280;38154;47.548;18.828;2023-07-28T06:11:18;98412.72;;;20.88;65.13
51239;BME280;38154;47.548;18.828;2023-07-28T06:13:44;98405.84;;;20.84;65.92
51239;BME280;38154;47.548;18.828;2023-07-28T06:16:12;98398.91;;;20.61;65.79
51239;BME280;38154;47.548;18.828;2023-07-28T06:18:38;98397.00;;;20.64;66.41
51239;BME280;38154;47.548;18.828;2023-07-28T06:21:04;98393.75;;;20.78;66.55
51239;BME280;38154;47.548;18.828;2023-07-28T06:23:30;98401.97;;;20.91;67.17
51239;BME280;38154;47.548;18.828;2023-07-28T06:25:55;98400.84;;;20.97;65.79
51239;BME280;38154;47.548;18.828;2023-07-28T06:28:21;98412.44;;;20.94;66.92
51239;BME280;38154;47.548;18.828;2023-07-28T06:30:53;98418.38;;;20.80;68.36
51239;BME280;38154;47.548;18.828;2023-07-28T06:33:19;98414.91;;;21.16;65.89
51239;BME280;38154;47.548;18.828;2023-07-28T06:35:45;98409.16;;;21.44;65.32
51239;BME280;38154;47.548;18.828;2023-07-28T06:38:11;98406.31;;;21.66;64.47
51239;BME280;38154;47.548;18.828;2023-07-28T06:40:37;98394.91;;;21.82;64.11
51239;BME280;38154;47.548;18.828;2023-07-28T06:43:03;98388.78;;;21.99;62.25
51239;BME280;38154;47.548;18.828;2023-07-28T06:45:28;98380.69;;;22.18;62.92
51239;BME280;38154;47.548;18.828;2023-07-28T06:47:54;98369.94;;;22.21;62.83
51239;BME280;38154;47.548;18.828;2023-07-28T06:50:20;98371.38;;;21.76;63.33
51239;BME280;38154;47.548;18.828;2023-07-28T06:52:46;98379.41;;;21.92;64.04
51239;BME280;38154;47.548;18.828;2023-07-28T06:55:15;98387.66;;;21.51;64.89
51239;BME280;38154;47.548;18.828;2023-07-28T06:57:40;98391.13;;;21.34;65.16
51239;BME280;38154;47.548;18.828;2023-07-28T07:00:07;98384.34;;;23.31;58.90
51239;BME280;38154;47.548;18.828;2023-07-28T07:02:35;98393.41;;;25.88;49.75
51239;BME280;38154;47.548;18.828;2023-07-28T07:05:02;98393.34;;;26.15;50.60
51239;BME280;38154;47.548;18.828;2023-07-28T07:07:28;98404.03;;;26.92;45.76
51239;BME280;38154;47.548;18.828;2023-07-28T07:09:54;98395.81;;;24.82;49.55
51239;BME280;38154;47.548;18.828;2023-07-28T07:12:20;98386.09;;;23.47;53.12
51239;BME280;38154;47.548;18.828;2023-07-28T07:14:47;98378.69;;;22.56;57.76
51239;BME280;38154;47.548;18.828;2023-07-28T07:17:13;98383.59;;;22.13;60.07
51239;BME280;38154;47.548;18.828;2023-07-28T07:19:39;98383.28;;;22.19;60.29
51239;BME280;38154;47.548;18.828;2023-07-28T07:22:05;98380.94;;;22.80;59.73
51239;BME280;38154;47.548;18.828;2023-07-28T07:24:32;98377.03;;;23.19;57.56
51239;BME280;38154;47.548;18.828;2023-07-28T07:27:00;98375.25;;;23.66;57.96
51239;BME280;38154;47.548;18.828;2023-07-28T07:29:26;98370.13;;;23.47;55.86
51239;BME280;38154;47.548;18.828;2023-07-28T07:31:52;98363.59;;;23.06;57.54
51239;BME280;38154;47.548;18.828;2023-07-28T07:34:22;98371.00;;;22.68;58.36
51239;BME280;38154;47.548;18.828;2023-07-28T07:36:49;98363.75;;;22.38;59.57
51239;BME280;38154;47.548;18.828;2023-07-28T07:39:15;98370.34;;;22.31;60.46
51239;BME280;38154;47.548;18.828;2023-07-28T07:41:41;98366.28;;;22.06;60.14
51239;BME280;38154;47.548;18.828;2023-07-28T07:44:07;98363.00;;;22.01;59.86
51239;BME280;38154;47.548;18.828;2023-07-28T07:46:33;98359.12;;;21.91;61.13
51239;BME280;38154;47.548;18.828;2023-07-28T07:48:59;98360.50;;;21.98;61.61
51239;BME280;38154;47.548;18.828;2023-07-28T07:51:24;98362.63;;;21.91;60.81
51239;BME280;38154;47.548;18.828;2023-07-28T07:53:52;98357.41;;;22.23;62.26
51239;BME280;38154;47.548;18.828;2023-07-28T07:56:18;98361.38;;;22.49;60.06
51239;BME280;38154;47.548;18.828;2023-07-28T07:58:44;98361.06;;;22.71;58.63
51239;BME280;38154;47.548;18.828;2023-07-28T08:01:10;98360.97;;;22.89;57.37
51239;BME280;38154;47.548;18.828;2023-07-28T08:03:36;98362.87;;;22.87;57.65
51239;BME280;38154;47.548;18.828;2023-07-28T08:06:03;98361.50;;;22.79;59.16
51239;BME280;38154;47.548;18.828;2023-07-28T08:08:29;98368.19;;;22.71;58.77
51239;BME280;38154;47.548;18.828;2023-07-28T08:10:55;98365.84;;;22.81;58.95
51239;BME280;38154;47.548;18.828;2023-07-28T08:13:21;98369.34;;;22.65;58.38
51239;BME280;38154;47.548;18.828;2023-07-28T08:15:47;98368.75;;;22.44;59.25
51239;BME280;38154;47.548;18.828;2023-07-28T08:18:14;98378.78;;;22.04;59.93
51239;BME280;38154;47.548;18.828;2023-07-28T08:20:40;98373.84;;;21.96;60.91
51239;BME280;38154;47.548;18.828;2023-07-28T08:23:05;98376.75;;;21.92;61.61
51239;BME280;38154;47.548;18.828;2023-07-28T08:25:34;98368.00;;;22.07;60.62
51239;BME280;38154;47.548;18.828;2023-07-28T08:28:00;98362.22;;;22.50;59.85
51239;BME280;38154;47.548;18.828;2023-07-28T08:30:26;98362.19;;;24.65;53.80
51239;BME280;38154;47.548;18.828;2023-07-28T08:32:52;98364.94;;;27.99;45.77
51239;BME280;38154;47.548;18.828;2023-07-28T08:35:18;98375.03;;;30.07;40.48
51239;BME280;38154;47.548;18.828;2023-07-28T08:37:44;98381.56;;;31.48;37.34
51239;BME280;38154;47.548;18.828;2023-07-28T08:40:10;98379.59;;;31.98;35.28
51239;BME280;38154;47.548;18.828;2023-07-28T08:42:38;98376.75;;;32.20;34.41
51239;BME280;38154;47.548;18.828;2023-07-28T08:45:05;98373.12;;;32.48;32.69
51239;BME280;38154;47.548;18.828;2023-07-28T08:47:32;98365.69;;;31.84;32.53
51239;BME280;38154;47.548;18.828;2023-07-28T08:49:58;98355.59;;;31.47;34.89
51239;BME280;38154;47.548;18.828;2023-07-28T08:52:24;98347.13;;;31.51;34.81
51239;BME280;38154;47.548;18.828;2023-07-28T08:54:50;98344.94;;;31.16;34.61
51239;BME280;38154;47.548;18.828;2023-07-28T08:57:16;98344.94;;;31.45;33.83
51239;BME280;38154;47.548;18.828;2023-07-28T08:59:42;98358.44;;;32.61;32.98
51239;BME280;38154;47.548;18.828;2023-07-28T09:02:17;98362.94;;;32.32;32.27
51239;BME280;38154;47.548;18.828;2023-07-28T09:04:47;98353.34;;;32.10;32.87
51239;BME280;38154;47.548;18.828;2023-07-28T09:07:14;98352.91;;;31.86;33.16
51239;BME280;38154;47.548;18.828;2023-07-28T09:09:40;98354.31;;;31.41;33.71
51239;BME280;38154;47.548;18.828;2023-07-28T09:12:07;98353.03;;;31.35;33.77
51239;BME280;38154;47.548;18.828;2023-07-28T09:14:38;98360.00;;;31.48;33.62
51239;BME280;38154;47.548;18.828;2023-07-28T09:17:12;98355.44;;;31.48;34.25
51239;BME280;38154;47.548;18.828;2023-07-28T09:19:55;98348.47;;;31.16;33.67
51239;BME280;38154;47.548;18.828;2023-07-28T09:22:22;98355.06;;;30.52;34.89
51239;BME280;38154;47.548;18.828;2023-07-28T09:24:48;98355.78;;;30.95;34.94
51239;BME280;38154;47.548;18.828;2023-07-28T09:27:26;98350.66;;;30.51;35.79
51239;BME280;38154;47.548;18.828;2023-07-28T09:29:53;98340.75;;;30.30;37.80
51239;BME280;38154;47.548;18.828;2023-07-28T09:32:32;98355.84;;;30.43;37.55
51239;BME280;38154;47.548;18.828;2023-07-28T09:35:13;98359.38;;;31.15;36.08
51239;BME280;38154;47.548;18.828;2023-07-28T09:37:50;98343.12;;;31.36;35.21
51239;BME280;38154;47.548;18.828;2023-07-28T09:40:22;98351.19;;;31.45;35.81
51239;BME280;38154;47.548;18.828;2023-07-28T09:42:49;98346.06;;;31.23;35.32
51239;BME280;38154;47.548;18.828;2023-07-28T09:45:17;98345.91;;;30.12;36.93
51239;BME280;38154;47.548;18.828;2023-07-28T09:47:47;98349.56;;;30.63;37.04
51239;BME280;38154;47.548;18.828;2023-07-28T09:50:18;98341.22;;;30.36;37.32
51239;BME280;38154;47.548;18.828;2023-07-28T09:52:49;98354.72;;;30.24;37.43
51239;BME280;38154;47.548;18.828;2023-07-28T09:55:19;98348.59;;;30.64;37.12
51239;BME280;38154;47.548;18.828;2023-07-28T09:57:50;98339.72;;;31.24;36.44
51239;BME280;38154;47.548;18.828;2023-07-28T10:00:21;98337.75;;;31.55;35.66
51239;BME280;38154;47.548;18.828;2023-07-28T10:02:48;98343.78;;;31.18;35.25
51239;BME280;38154;47.548;18.828;2023-07-28T10:05:14;98350.06;;;31.19;36.73
51239;BME280;38154;47.548;18.828;2023-07-28T10:07:43;98345.38;;;31.21;36.95
51239;BME280;38154;47.548;18.828;2023-07-28T10:10:12;98349.09;;;31.78;36.80
51239;BME280;38154;47.548;18.828;2023-07-28T10:12:49;98347.09;;;32.10;35.10
51239;BME280;38154;47.548;18.828;2023-07-28T10:15:19;98344.12;;;32.50;34.57
51239;BME280;38154;47.548;18.828;2023-07-28T10:17:50;98346.50;;;32.16;35.64
51239;BME280;38154;47.548;18.828;2023-07-28T10:25:39;98347.50;;;32.25;35.00
51239;BME280;38154;47.548;18.828;2023-07-28T10:28:07;98351.34;;;32.12;34.76
51239;BME280;38154;47.548;18.828;2023-07-28T10:30:52;98349.09;;;31.59;37.02
51239;BME280;38154;47.548;18.828;2023-07-28T10:33:31;98356.25;;;32.36;35.99
51239;BME280;38154;47.548;18.828;2023-07-28T10:35:59;98348.66;;;32.60;35.39
51239;BME280;38154;47.548;18.828;2023-07-28T10:38:35;98343.44;;;32.48;35.49
51239;BME280;38154;47.548;18.828;2023-07-28T10:41:29;98345.38;;;32.09;35.42
51239;BME280;38154;47.548;18.828;2023-07-28T10:43:56;98335.19;;;31.93;36.22
51239;BME280;38154;47.548;18.828;2023-07-28T10:46:22;98339.97;;;31.40;37.03
51239;BME280;38154;47.548;18.828;2023-07-28T10:48:49;98332.81;;;31.51;36.79
51239;BME280;38154;47.548;18.828;2023-07-28T10:51:23;98340.25;;;32.06;36.21
51239;BME280;38154;47.548;18.828;2023-07-28T10:53:51;98334.41;;;32.67;34.71
51239;BME280;38154;47.548;18.828;2023-07-28T10:56:17;98337.41;;;32.64;35.38
51239;BME280;38154;47.548;18.828;2023-07-28T10:58:44;98333.81;;;33.47;35.42
51239;BME280;38154;47.548;18.828;2023-07-28T11:01:10;98339.03;;;33.31;34.23
51239;BME280;38154;47.548;18.828;2023-07-28T11:03:36;98338.44;;;33.91;33.06
51239;BME280;38154;47.548;18.828;2023-07-28T11:06:03;98338.81;;;33.78;34.23
51239;BME280;38154;47.548;18.828;2023-07-28T11:08:29;98321.59;;;32.97;34.13
51239;BME280;38154;47.548;18.828;2023-07-28T11:10:55;98329.78;;;32.50;35.95
51239;BME280;38154;47.548;18.828;2023-07-28T11:13:21;98334.06;;;32.43;35.33
51239;BME280;38154;47.548;18.828;2023-07-28T11:15:47;98332.16;;;32.63;35.12
51239;BME280;38154;47.548;18.828;2023-07-28T11:18:15;98332.09;;;32.45;36.16
51239;BME280;38154;47.548;18.828;2023-07-28T11:20:41;98334.72;;;32.64;36.74
51239;BME280;38154;47.548;18.828;2023-07-28T11:23:07;98330.63;;;32.50;35.32
51239;BME280;38154;47.548;18.828;2023-07-28T11:25:34;98321.91;;;32.94;35.39
51239;BME280;38154;47.548;18.828;2023-07-28T11:28:02;98330.38;;;33.45;34.70
51239;BME280;38154;47.548;18.828;2023-07-28T11:30:31;98326.31;;;33.41;34.21
51239;BME280;38154;47.548;18.828;2023-07-28T11:32:58;98320.66;;;33.70;34.16
51239;BME280;38154;47.548;18.828;2023-07-28T11:35:24;98323.66;;;33.67;34.04
51239;BME280;38154;47.548;18.828;2023-07-28T11:37:51;98324.84;;;32.73;34.14
51239;BME280;38154;47.548;18.828;2023-07-28T11:40:20;98331.72;;;32.95;33.86
51239;BME280;38154;47.548;18.828;2023-07-28T11:42:48;98327.59;;;32.26;34.18
51239;BME280;38154;47.548;18.828;2023-07-28T11:45:16;98328.34;;;32.18;34.66
51239;BME280;38154;47.548;18.828;2023-07-28T11:47:58;98321.09;;;31.99;34.89
51239;BME280;38154;47.548;18.828;2023-07-28T11:50:44;98319.16;;;31.72;34.76
51239;BME280;38154;47.548;18.828;2023-07-28T11:53:11;98313.16;;;31.39;36.29
51239;BME280;38154;47.548;18.828;2023-07-28T11:55:38;98302.41;;;31.49;36.43
51239;BME280;38154;47.548;18.828;2023-07-28T11:58:06;98299.59;;;31.31;37.12
51239;BME280;38154;47.548;18.828;2023-07-28T12:00:35;98297.28;;;31.16;37.67
51239;BME280;38154;47.548;18.828;2023-07-28T12:03:11;98294.75;;;31.34;37.81
51239;BME280;38154;47.548;18.828;2023-07-28T12:05:58;98292.63;;;31.18;37.69
51239;BME280;38154;47.548;18.828;2023-07-28T12:08:34;98296.44;;;31.06;37.73
51239;BME280;38154;47.548;18.828;2023-07-28T12:11:00;98285.25;;;31.01;37.93
51239;BME280;38154;47.548;18.828;2023-07-28T12:13:26;98278.87;;;31.21;37.87
51239;BME280;38154;47.548;18.828;2023-07-28T12:15:52;98286.53;;;31.16;37.58
51239;BME280;38154;47.548;18.828;2023-07-28T12:18:18;98282.56;;;31.11;37.83
51239;BME280;38154;47.548;18.828;2023-07-28T12:20:47;98277.47;;;31.17;36.72
51239;BME280;38154;47.548;18.828;2023-07-28T12:23:14;98274.47;;;31.20;38.50
51239;BME280;38154;47.548;18.828;2023-07-28T12:25:41;98266.09;;;30.94;39.76
51239;BME280;38154;47.548;18.828;2023-07-28T12:28:07;98274.03;;;31.15;38.92
51239;BME280;38154;47.548;18.828;2023-07-28T12:30:34;98269.53;;;31.16;38.72
51239;BME280;38154;47.548;18.828;2023-07-28T12:33:00;98269.78;;;31.13;38.48
51239;BME280;38154;47.548;18.828;2023-07-28T12:35:31;98268.66;;;30.96;37.60
51239;BME280;38154;47.548;18.828;2023-07-28T12:38:05;98268.91;;;30.93;38.36
51239;BME280;38154;47.548;18.828;2023-07-28T12:40:33;98260.53;;;30.86;39.10
51239;BME280;38154;47.548;18.828;2023-07-28T12:43:00;98266.62;;;30.88;39.02
51239;BME280;38154;47.548;18.828;2023-07-28T12:45:26;98270.16;;;30.79;38.73
51239;BME280;38154;47.548;18.828;2023-07-28T12:47:53;98262.34;;;30.76;38.06
51239;BME280;38154;47.548;18.828;2023-07-28T12:50:23;98263.75;;;30.60;39.58
51239;BME280;38154;47.548;18.828;2023-07-28T12:52:49;98267.06;;;30.43;38.25
51239;BME280;38154;47.548;18.828;2023-07-28T12:55:16;98262.28;;;30.15;38.58
51239;BME280;38154;47.548;18.828;2023-07-28T12:57:43;98267.59;;;30.37;41.31